sensor_id;sensor_type;location;lat;lon;timestamp;temperature;humidity
12089;DHT22;6107;49.078;8.578;2024-01-06T04:49:20;4.90;99.90
12089;DHT22;6107;49.078;8.578;2024-01-06T04:51:47;5.00;99.90
12089;DHT22;6107;49.078;8.578;2024-01-06T04:54:13;5.00;99.90
12089;DHT22;6107;49.078;8.578;2024-01-06T04:56:38;5.00;99.90
12089;DHT22;6107;49.078;8.578;2024-01-06T04:59:05;5.10;99.90
12089;DHT22;6107;49.078;8.578;2024-01-06T05:01:30;5.10;99.90
12089;DHT22;6107;49.078;8.578;2024-01-06T05:03:56;5.10;99.90
12089;DHT22;6107;49.078;8.578;2024-01-06T05:06:23;5.10;99.90
12089;DHT22;6107;49.078;8.578;2024-01-06T05:08:48;5.10;99.90
12089;DHT22;6107;49.078;8.578;2024-01-06T05:11:14;5.20;99.90
12089;DHT22;6107;49.078;8.578;2024-01-06T05:13:40;5.00;99.90
12089;DHT22;6107;49.078;8.578;2024-01-06T05:16:06;5.10;99.90
12089;DHT22;6107;49.078;8.578;2024-01-06T05:18:32;5.20;99.90
12089;DHT22;6107;49.078;8.578;2024-01-06T05:20:58;5.10;99.90
12089;DHT22;6107;49.078;8.578;2024-01-06T05:23:23;5.10;99.90
12089;DHT22;6107;49.078;8.578;2024-01-06T05:25:49;5.10;99.90
12089;DHT22;6107;49.078;8.578;2024-01-06T05:28:14;5.10;99.90
12089;DHT22;6107;49.078;8.578;2024-01-06T05:30:40;5.10;99.90
12089;DHT22;6107;49.078;8.578;2024-01-06T05:33:09;5.20;99.90
12089;DHT22;6107;49.078;8.578;2024-01-06T05:35:35;5.20;99.90
12089;DHT22;6107;49.078;8.578;2024-01-06T05:38:01;5.30;99.90
12089;DHT22;6107;49.078;8.578;2024-01-06T05:40:26;5.30;99.90
12089;DHT22;6107;49.078;8.578;2024-01-06T05:42:52;5.30;99.90
12089;DHT22;6107;49.078;8.578;2024-01-06T05:45:21;5.20;99.90
12089;DHT22;6107;49.078;8.578;2024-01-06T05:47:47;5.30;99.90
12089;DHT22;6107;49.078;8.578;2024-01-06T05:50:15;5.30;99.90
12089;DHT22;6107;49.078;8.578;2024-01-06T05:52:41;5.30;99.90
12089;DHT22;6107;49.078;8.578;2024-01-06T05:55:07;5.30;99.90
12089;DHT22;6107;49.078;8.578;2024-01-06T05:57:33;5.30;99.90
12089;DHT22;6107;49.078;8.578;2024-01-06T05:59:59;5.30;99.90
12089;DHT22;6107;49.078;8.578;2024-01-06T06:02:25;5.30;99.90
12089;DHT22;6107;49.078;8.578;2024-01-06T06:04:51;5.40;99.90
12089;DHT22;6107;49.078;8.578;2024-01-06T06:07:18;5.50;99.90
12089;DHT22;6107;49.078;8.578;2024-01-06T06:09:43;5.40;99.90
12089;DHT22;6107;49.078;8.578;2024-01-06T06:12:13;5.40;99.90
12089;DHT22;6107;49.078;8.578;2024-01-06T06:14:38;5.50;99.90
12089;DHT22;6107;49.078;8.578;2024-01-06T06:17:04;5.40;99.90
12089;DHT22;6107;49.078;8.578;2024-01-06T06:19:30;5.50;99.90
12089;DHT22;6107;49.078;8.578;2024-01-06T06:21:55;5.60;99.90
12089;DHT22;6107;49.078;8.578;2024-01-06T06:24:26;5.70;99.90
12089;DHT22;6107;49.078;8.578;2024-01-06T06:26:59;5.50;99.90
12089;DHT22;6107;49.078;8.578;2024-01-06T06:29:27;5.50;99.90
12089;DHT22;6107;49.078;8.578;2024-01-06T06:31:54;5.50;99.90
12089;DHT22;6107;49.078;8.578;2024-01-06T06:34:19;5.50;99.90
12089;DHT22;6107;49.078;8.578;2024-01-06T06:36:45;5.50;99.90
12089;DHT22;6107;49.078;8.578;2024-01-06T06:39:11;5.50;99.90
12089;DHT22;6107;49.078;8.578;2024-01-06T06:41:37;5.40;99.90
12089;DHT22;6107;49.078;8.578;2024-01-06T06:44:02;5.40;99.90
12089;DHT22;6107;49.078;8.578;2024-01-06T06:46:28;5.50;99.90
12089;DHT22;6107;49.078;8.578;2024-01-06T06:48:54;5.50;99.90
12089;DHT22;6107;49.078;8.578;2024-01-06T06:51:20;5.60;99.90
12089;DHT22;6107;49.078;8.578;2024-01-06T06:53:50;5.60;99.90
12089;DHT22;6107;49.078;8.578;2024-01-06T06:56:16;5.60;99.90
12089;DHT22;6107;49.078;8.578;2024-01-06T06:58:42;5.60;99.90
12089;DHT22;6107;49.078;8.578;2024-01-06T07:01:08;5.50;99.90
12089;DHT22;6107;49.078;8.578;2024-01-06T07:03:34;5.50;99.90
12089;DHT22;6107;49.078;8.578;2024-01-06T07:05:59;5.50;99.90
12089;DHT22;6107;49.078;8.578;2024-01-06T07:08:25;5.50;99.90
12089;DHT22;6107;49.078;8.578;2024-01-06T07:10:51;5.60;99.90
12089;DHT22;6107;49.078;8.578;2024-01-06T07:13:16;5.50;99.90
12089;DHT22;6107;49.078;8.578;2024-01-06T07:15:42;5.50;99.90
12089;DHT22;6107;49.078;8.578;2024-01-06T07:18:07;5.70;99.90
12089;DHT22;6107;49.078;8.578;2024-01-06T07:20:33;5.70;99.90
12089;DHT22;6107;49.078;8.578;2024-01-06T07:22:59;5.50;99.90
12089;DHT22;6107;49.078;8.578;2024-01-06T07:25:24;5.50;99.90
12089;DHT22;6107;49.078;8.578;2024-01-06T07:27:50;5.50;99.90
12089;DHT22;6107;49.078;8.578;2024-01-06T07:30:15;5.50;99.90
12089;DHT22;6107;49.078;8.578;2024-01-06T07:32:41;5.50;99.90
12089;DHT22;6107;49.078;8.578;2024-01-06T07:35:08;5.50;99.90
12089;DHT22;6107;49.078;8.578;2024-01-06T07:37:33;5.60;99.90
12089;DHT22;6107;49.078;8.578;2024-01-06T07:39:59;5.50;99.90
12089;DHT22;6107;49.078;8.578;2024-01-06T07:42:24;5.50;99.90
12089;DHT22;6107;49.078;8.578;2024-01-06T07:44:50;5.50;99.90
12089;DHT22;6107;49.078;8.578;2024-01-06T07:47:16;5.60;99.90
12089;DHT22;6107;49.078;8.578;2024-01-06T07:49:41;5.60;99.90
12089;DHT22;6107;49.078;8.578;2024-01-06T07:52:07;5.70;99.90
12089;DHT22;6107;49.078;8.578;2024-01-06T07:54:32;5.70;99.90
12089;DHT22;6107;49.078;8.578;2024-01-06T07:56:58;5.70;99.90
12089;DHT22;6107;49.078;8.578;2024-01-06T07:59:24;5.80;99.90
12089;DHT22;6107;49.078;8.578;2024-01-06T08:01:50;5.80;99.90
12089;DHT22;6107;49.078;8.578;2024-01-06T08:04:15;5.80;99.90
12089;DHT22;6107;49.078;8.578;2024-01-06T08:06:41;5.80;99.90
12089;DHT22;6107;49.078;8.578;2024-01-06T08:09:07;5.80;99.90
12089;DHT22;6107;49.078;8.578;2024-01-06T08:11:33;5.90;99.90
12089;DHT22;6107;49.078;8.578;2024-01-06T08:13:59;6.00;99.90
12089;DHT22;6107;49.078;8.578;2024-01-06T08:16:24;5.90;99.90
12089;DHT22;6107;49.078;8.578;2024-01-06T08:18:50;5.80;99.90
12089;DHT22;6107;49.078;8.578;2024-01-06T08:21:16;5.90;99.90
12089;DHT22;6107;49.078;8.578;2024-01-06T08:23:41;5.90;99.90
12089;DHT22;6107;49.078;8.578;2024-01-06T08:26:07;6.00;99.90
12089;DHT22;6107;49.078;8.578;2024-01-06T08:28:32;5.90;99.90
12089;DHT22;6107;49.078;8.578;2024-01-06T08:30:58;6.00;99.90
12089;DHT22;6107;49.078;8.578;2024-01-06T08:33:24;5.90;99.90
12089;DHT22;6107;49.078;8.578;2024-01-06T08:35:50;5.80;99.90
12089;DHT22;6107;49.078;8.578;2024-01-06T08:38:15;5.80;99.90
12089;DHT22;6107;49.078;8.578;2024-01-06T08:40:41;5.80;99.90
12089;DHT22;6107;49.078;8.578;2024-01-06T08:43:07;5.80;99.90
12089;DHT22;6107;49.078;8.578;2024-01-06T08:45:32;5.90;99.90
12089;DHT22;6107;49.078;8.578;2024-01-06T08:47:58;5.90;99.90
12089;DHT22;6107;49.078;8.578;2024-01-06T08:50:24;5.80;99.90
12089;DHT22;6107;49.078;8.578;2024-01-06T08:52:49;5.80;99.90
12089;DHT22;6107;49.078;8.578;2024-01-06T08:55:15;5.80;99.90
12089;DHT22;6107;49.078;8.578;2024-01-06T08:57:42;5.90;99.90
12089;DHT22;6107;49.078;8.578;2024-01-06T09:00:08;5.80;99.90
12089;DHT22;6107;49.078;8.578;2024-01-06T09:02:34;5.80;99.90
12089;DHT22;6107;49.078;8.578;2024-01-06T09:05:00;5.80;99.90
12089;DHT22;6107;49.078;8.578;2024-01-06T09:07:31;5.80;99.90
12089;DHT22;6107;49.078;8.578;2024-01-06T09:10:03;5.90;99.90
12089;DHT22;6107;49.078;8.578;2024-01-06T09:12:29;5.90;99.90
12089;DHT22;6107;49.078;8.578;2024-01-06T09:14:55;5.90;99.90
12089;DHT22;6107;49.078;8.578;2024-01-06T09:17:20;5.80;99.90
12089;DHT22;6107;49.078;8.578;2024-01-06T09:19:47;6.00;99.90
12089;DHT22;6107;49.078;8.578;2024-01-06T09:22:13;5.90;99.90
12089;DHT22;6107;49.078;8.578;2024-01-06T09:24:40;6.00;99.90
12089;DHT22;6107;49.078;8.578;2024-01-06T09:27:06;5.90;99.90
12089;DHT22;6107;49.078;8.578;2024-01-06T09:29:31;5.90;99.90
12089;DHT22;6107;49.078;8.578;2024-01-06T09:31:57;6.10;99.90
12089;DHT22;6107;49.078;8.578;2024-01-06T09:34:22;6.10;99.90
12089;DHT22;6107;49.078;8.578;2024-01-06T09:36:48;5.90;99.90
12089;DHT22;6107;49.078;8.578;2024-01-06T09:39:14;5.90;99.90
12089;DHT22;6107;49.078;8.578;2024-01-06T09:41:39;5.90;99.90
12089;DHT22;6107;49.078;8.578;2024-01-06T09:44:05;5.80;99.90
12089;DHT22;6107;49.078;8.578;2024-01-06T09:46:31;5.80;99.90
12089;DHT22;6107;49.078;8.578;2024-01-06T09:48:58;5.90;99.90
12089;DHT22;6107;49.078;8.578;2024-01-06T09:51:24;6.00;99.90
12089;DHT22;6107;49.078;8.578;2024-01-06T09:53:59;7.60;99.90
12089;DHT22;6107;49.078;8.578;2024-01-06T09:56:27;6.50;99.90
12089;DHT22;6107;49.078;8.578;2024-01-06T09:58:54;5.90;99.90
12089;DHT22;6107;49.078;8.578;2024-01-06T10:01:20;5.90;99.90
12089;DHT22;6107;49.078;8.578;2024-01-06T10:03:46;5.80;99.90
12089;DHT22;6107;49.078;8.578;2024-01-06T10:06:16;5.80;99.90
12089;DHT22;6107;49.078;8.578;2024-01-06T10:08:43;5.80;99.90
12089;DHT22;6107;49.078;8.578;2024-01-06T10:11:08;6.10;99.90
12089;DHT22;6107;49.078;8.578;2024-01-06T10:13:35;6.00;99.90
12089;DHT22;6107;49.078;8.578;2024-01-06T10:16:01;6.00;99.90
12089;DHT22;6107;49.078;8.578;2024-01-06T10:18:27;6.00;99.90
12089;DHT22;6107;49.078;8.578;2024-01-06T10:20:55;6.00;99.90
12089;DHT22;6107;49.078;8.578;2024-01-06T10:23:26;5.90;99.90
12089;DHT22;6107;49.078;8.578;2024-01-06T10:25:56;5.90;99.90
12089;DHT22;6107;49.078;8.578;2024-01-06T10:28:22;6.00;99.90
12089;DHT22;6107;49.078;8.578;2024-01-06T10:30:56;6.00;99.90
12089;DHT22;6107;49.078;8.578;2024-01-06T10:33:24;6.00;99.90
12089;DHT22;6107;49.078;8.578;2024-01-06T10:35:50;6.00;99.90
12089;DHT22;6107;49.078;8.578;2024-01-06T10:38:16;6.00;99.90
12089;DHT22;6107;49.078;8.578;2024-01-06T10:41:03;6.10;99.90
12089;DHT22;6107;49.078;8.578;2024-01-06T10:43:33;6.00;99.90
12089;DHT22;6107;49.078;8.578;2024-01-06T10:46:02;6.10;99.90
12089;DHT22;6107;49.078;8.578;2024-01-06T10:48:32;6.10;99.90
12089;DHT22;6107;49.078;8.578;2024-01-06T10:50:58;6.10;99.90
12089;DHT22;6107;49.078;8.578;2024-01-06T10:53:26;6.10;99.90
12089;DHT22;6107;49.078;8.578;2024-01-06T10:55:53;6.20;99.90
12089;DHT22;6107;49.078;8.578;2024-01-06T10:58:19;6.20;99.90
12089;DHT22;6107;49.078;8.578;2024-01-06T11:00:45;6.20;99.90
12089;DHT22;6107;49.078;8.578;2024-01-06T11:03:13;6.30;99.90
12089;DHT22;6107;49.078;8.578;2024-01-06T11:05:40;6.10;99.90
12089;DHT22;6107;49.078;8.578;2024-01-06T11:08:07;6.20;99.90
12089;DHT22;6107;49.078;8.578;2024-01-06T11:10:33;5.90;99.90
12089;DHT22;6107;49.078;8.578;2024-01-06T11:13:15;6.00;99.90
12089;DHT22;6107;49.078;8.578;2024-01-06T11:15:49;6.20;99.90
12089;DHT22;6107;49.078;8.578;2024-01-06T11:18:37;6.30;99.90
12089;DHT22;6107;49.078;8.578;2024-01-06T11:23:44;6.30;99.90
12089;DHT22;6107;49.078;8.578;2024-01-06T11:26:10;6.30;99.90
12089;DHT22;6107;49.078;8.578;2024-01-06T11:28:46;6.10;99.90
12089;DHT22;6107;49.078;8.578;2024-01-06T11:31:13;6.20;99.90
12089;DHT22;6107;49.078;8.578;2024-01-06T11:33:45;6.20;99.90
12089;DHT22;6107;49.078;8.578;2024-01-06T11:36:19;6.30;99.90
12089;DHT22;6107;49.078;8.578;2024-01-06T11:38:46;6.20;99.90
12089;DHT22;6107;49.078;8.578;2024-01-06T11:41:48;6.10;99.90
12089;DHT22;6107;49.078;8.578;2024-01-06T11:44:18;6.20;99.90
12089;DHT22;6107;49.078;8.578;2024-01-06T11:46:45;6.10;99.90
12089;DHT22;6107;49.078;8.578;2024-01-06T11:49:11;6.20;99.90
12089;DHT22;6107;49.078;8.578;2024-01-06T11:51:37;6.30;99.90
12089;DHT22;6107;49.078;8.578;2024-01-06T11:54:03;6.40;99.90
12089;DHT22;6107;49.078;8.578;2024-01-06T11:56:29;6.30;99.90
12089;DHT22;6107;49.078;8.578;2024-01-06T11:58:54;6.30;99.90
12089;DHT22;6107;49.078;8.578;2024-01-06T12:01:20;6.40;99.90
12089;DHT22;6107;49.078;8.578;2024-01-06T12:03:46;6.40;99.90
12089;DHT22;6107;49.078;8.578;2024-01-06T12:06:12;6.50;99.90
12089;DHT22;6107;49.078;8.578;2024-01-06T12:08:37;6.40;99.90
12089;DHT22;6107;49.078;8.578;2024-01-06T12:11:04;6.40;99.90
12089;DHT22;6107;49.078;8.578;2024-01-06T12:13:30;6.60;99.90
12089;DHT22;6107;49.078;8.578;2024-01-06T12:15:56;6.60;99.90
12089;DHT22;6107;49.078;8.578;2024-01-06T12:18:22;6.70;99.90
12089;DHT22;6107;49.078;8.578;2024-01-06T12:20:50;6.70;99.90
12089;DHT22;6107;49.078;8.578;2024-01-06T12:23:36;6.40;99.90
12089;DHT22;6107;49.078;8.578;2024-01-06T12:26:02;6.30;99.90
12089;DHT22;6107;49.078;8.578;2024-01-06T12:28:28;6.50;99.90
12089;DHT22;6107;49.078;8.578;2024-01-06T12:30:54;6.70;99.90
12089;DHT22;6107;49.078;8.578;2024-01-06T12:33:20;6.50;99.90
12089;DHT22;6107;49.078;8.578;2024-01-06T12:35:45;6.50;99.90
12089;DHT22;6107;49.078;8.578;2024-01-06T12:38:11;6.50;99.90
12089;DHT22;6107;49.078;8.578;2024-01-06T12:40:37;6.50;99.90
12089;DHT22;6107;49.078;8.578;2024-01-06T12:43:06;6.50;99.90
12089;DHT22;6107;49.078;8.578;2024-01-06T12:45:32;6.50;99.90
12089;DHT22;6107;49.078;8.578;2024-01-06T12:47:57;6.40;99.90
12089;DHT22;6107;49.078;8.578;2024-01-06T12:50:23;6.40;99.90
12089;DHT22;6107;49.078;8.578;2024-01-06T12:52:49;6.40;99.90
12089;DHT22;6107;49.078;8.578;2024-01-06T12:55:14;6.50;99.90
12089;DHT22;6107;49.078;8.578;2024-01-06T12:57:42;6.50;99.90
12089;DHT22;6107;49.078;8.578;2024-01-06T13:00:08;7.00;99.90
12089;DHT22;6107;49.078;8.578;2024-01-06T13:02:36;6.90;99.90
12089;DHT22;6107;49.078;8.578;2024-01-06T13:05:02;6.70;99.90
12089;DHT22;6107;49.078;8.578;2024-01-06T13:07:28;6.60;99.90
12089;DHT22;6107;49.078;8.578;2024-01-06T13:09:54;6.40;99.90
12089;DHT22;6107;49.078;8.578;2024-01-06T13:12:20;7.70;99.90
12089;DHT22;6107;49.078;8.578;2024-01-06T13:14:45;6.90;99.90
12089;DHT22;6107;49.078;8.578;2024-01-06T13:17:15;6.70;99.90
12089;DHT22;6107;49.078;8.578;2024-01-06T13:19:40;6.60;99.90
12089;DHT22;6107;49.078;8.578;2024-01-06T13:22:06;6.60;99.90
12089;DHT22;6107;49.078;8.578;2024-01-06T13:24:31;6.60;99.90
12089;DHT22;6107;49.078;8.578;2024-01-06T13:26:57;6.50;99.90
12089;DHT22;6107;49.078;8.578;2024-01-06T13:29:24;6.50;99.90
12089;DHT22;6107;49.078;8.578;2024-01-06T13:31:50;6.50;99.90
12089;DHT22;6107;49.078;8.578;2024-01-06T13:34:15;6.40;99.90
12089;DHT22;6107;49.078;8.578;2024-01-06T13:36:41;6.50;99.90
12089;DHT22;6107;49.078;8.578;2024-01-06T13:39:07;6.50;99.90
12089;DHT22;6107;49.078;8.578;2024-01-06T13:41:32;6.60;99.90
12089;DHT22;6107;49.078;8.578;2024-01-06T13:43:58;6.70;99.90
12089;DHT22;6107;49.078;8.578;2024-01-06T13:46:24;6.70;99.90
12089;DHT22;6107;49.078;8.578;2024-01-06T13:48:50;6.60;99.90
12089;DHT22;6107;49.078;8.578;2024-01-06T13:51:16;6.60;99.90
12089;DHT22;6107;49.078;8.578;2024-01-06T13:53:42;6.60;99.90
12089;DHT22;6107;49.078;8.578;2024-01-06T13:56:07;6.60;99.90
12089;DHT22;6107;49.078;8.578;2024-01-06T13:58:33;6.60;99.90
12089;DHT22;6107;49.078;8.578;2024-01-06T14:01:01;6.70;99.90
12089;DHT22;6107;49.078;8.578;2024-01-06T14:03:27;6.60;99.90
12089;DHT22;6107;49.078;8.578;2024-01-06T14:05:53;6.80;99.90
12089;DHT22;6107;49.078;8.578;2024-01-06T14:08:19;6.60;99.90
12089;DHT22;6107;49.078;8.578;2024-01-06T14:10:44;6.60;99.90
12089;DHT22;6107;49.078;8.578;2024-01-06T14:13:10;6.60;99.90
12089;DHT22;6107;49.078;8.578;2024-01-06T14:15:36;6.50;99.90
12089;DHT22;6107;49.078;8.578;2024-01-06T14:18:03;6.50;99.90
12089;DHT22;6107;49.078;8.578;2024-01-06T14:20:29;6.50;99.90
12089;DHT22;6107;49.078;8.578;2024-01-06T14:22:57;6.50;99.90
12089;DHT22;6107;49.078;8.578;2024-01-06T14:25:22;6.50;99.90
12089;DHT22;6107;49.078;8.578;2024-01-06T14:27:48;6.60;99.90
12089;DHT22;6107;49.078;8.578;2024-01-06T14:30:14;6.60;99.90
12089;DHT22;6107;49.078;8.578;2024-01-06T14:32:39;6.60;99.90
12089;DHT22;6107;49.078;8.578;2024-01-06T14:35:06;6.60;99.90
12089;DHT22;6107;49.078;8.578;2024-01-06T14:37:35;6.60;99.90
12089;DHT22;6107;49.078;8.578;2024-01-06T14:40:01;6.50;99.90
12089;DHT22;6107;49.078;8.578;2024-01-06T14:42:31;6.50;99.90
12089;DHT22;6107;49.078;8.578;2024-01-06T14:44:58;6.40;99.90
12089;DHT22;6107;49.078;8.578;2024-01-06T14:47:24;6.60;99.90
12089;DHT22;6107;49.078;8.578;2024-01-06T14:49:49;6.60;99.90
12089;DHT22;6107;49.078;8.578;2024-01-06T14:52:15;6.50;99.90
12089;DHT22;6107;49.078;8.578;2024-01-06T14:54:40;6.50;99.90
12089;DHT22;6107;49.078;8.578;2024-01-06T14:57:06;6.60;99.90
12089;DHT22;6107;49.078;8.578;2024-01-06T14:59:33;6.70;99.90
12089;DHT22;6107;49.078;8.578;2024-01-06T15:02:02;6.60;99.90
12089;DHT22;6107;49.078;8.578;2024-01-06T15:04:28;6.60;99.90
12089;DHT22;6107;49.078;8.578;2024-01-06T15:06:54;6.50;99.90
12089;DHT22;6107;49.078;8.578;2024-01-06T15:09:19;6.70;99.90
12089;DHT22;6107;49.078;8.578;2024-01-06T15:11:46;6.70;99.90
12089;DHT22;6107;49.078;8.578;2024-01-06T15:14:12;6.70;99.90
12089;DHT22;6107;49.078;8.578;2024-01-06T15:16:38;6.70;99.90
12089;DHT22;6107;49.078;8.578;2024-01-06T15:19:04;6.70;99.90
12089;DHT22;6107;49.078;8.578;2024-01-06T15:21:29;6.60;99.90
12089;DHT22;6107;49.078;8.578;2024-01-06T15:23:59;6.60;99.90
12089;DHT22;6107;49.078;8.578;2024-01-06T15:26:25;6.40;99.90
12089;DHT22;6107;49.078;8.578;2024-01-06T15:28:51;6.30;99.90
12089;DHT22;6107;49.078;8.578;2024-01-06T15:31:17;6.40;99.90
12089;DHT22;6107;49.078;8.578;2024-01-06T15:33:43;6.60;99.90
12089;DHT22;6107;49.078;8.578;2024-01-06T15:36:08;6.60;99.90
12089;DHT22;6107;49.078;8.578;2024-01-06T15:38:34;6.50;99.90
12089;DHT22;6107;49.078;8.578;2024-01-06T15:41:00;6.50;99.90
12089;DHT22;6107;49.078;8.578;2024-01-06T15:43:26;6.50;99.90
12089;DHT22;6107;49.078;8.578;2024-01-06T15:45:52;6.60;99.90
12089;DHT22;6107;49.078;8.578;2024-01-06T15:48:19;6.60;99.90
12089;DHT22;6107;49.078;8.578;2024-01-06T15:50:45;6.50;99.90
12089;DHT22;6107;49.078;8.578;2024-01-06T15:53:11;6.50;99.90
12089;DHT22;6107;49.078;8.578;2024-01-06T15:55:40;6.70;99.90
12089;DHT22;6107;49.078;8.578;2024-01-06T15:58:06;6.50;99.90
12089;DHT22;6107;49.078;8.578;2024-01-06T16:02:59;11.50;99.90
12089;DHT22;6107;49.078;8.578;2024-01-06T16:05:24;8.20;99.90
12089;DHT22;6107;49.078;8.578;2024-01-06T16:07:50;7.40;99.90
12089;DHT22;6107;49.078;8.578;2024-01-06T16:10:19;6.70;99.90
12089;DHT22;6107;49.078;8.578;2024-01-06T16:12:49;6.50;99.90
12089;DHT22;6107;49.078;8.578;2024-01-06T16:15:18;6.60;99.90
12089;DHT22;6107;49.078;8.578;2024-01-06T16:17:45;6.70;99.90
12089;DHT22;6107;49.078;8.578;2024-01-06T16:20:11;6.70;99.90
12089;DHT22;6107;49.078;8.578;2024-01-06T16:22:37;6.60;99.90
12089;DHT22;6107;49.078;8.578;2024-01-06T16:25:03;6.60;99.90
12089;DHT22;6107;49.078;8.578;2024-01-06T16:27:28;6.70;99.90
12089;DHT22;6107;49.078;8.578;2024-01-06T16:29:54;6.80;99.90
12089;DHT22;6107;49.078;8.578;2024-01-06T16:32:20;6.90;99.90
12089;DHT22;6107;49.078;8.578;2024-01-06T16:34:46;6.60;99.90
12089;DHT22;6107;49.078;8.578;2024-01-06T16:37:13;6.70;99.90
12089;DHT22;6107;49.078;8.578;2024-01-06T16:39:39;6.80;99.90
12089;DHT22;6107;49.078;8.578;2024-01-06T16:42:05;6.80;99.90
12089;DHT22;6107;49.078;8.578;2024-01-06T16:44:31;6.80;99.90
12089;DHT22;6107;49.078;8.578;2024-01-06T16:46:58;6.80;99.90
12089;DHT22;6107;49.078;8.578;2024-01-06T16:49:24;6.60;99.90
12089;DHT22;6107;49.078;8.578;2024-01-06T16:51:53;6.70;99.90
12089;DHT22;6107;49.078;8.578;2024-01-06T16:54:19;6.70;99.90
12089;DHT22;6107;49.078;8.578;2024-01-06T16:56:45;6.70;99.90
12089;DHT22;6107;49.078;8.578;2024-01-06T16:59:11;6.70;99.90
12089;DHT22;6107;49.078;8.578;2024-01-06T17:01:37;6.60;99.90
12089;DHT22;6107;49.078;8.578;2024-01-06T17:04:02;6.70;99.90
12089;DHT22;6107;49.078;8.578;2024-01-06T17:06:28;6.70;99.90
12089;DHT22;6107;49.078;8.578;2024-01-06T17:08:54;6.80;99.90
12089;DHT22;6107;49.078;8.578;2024-01-06T17:11:20;6.70;99.90
12089;DHT22;6107;49.078;8.578;2024-01-06T17:13:46;6.70;99.90
12089;DHT22;6107;49.078;8.578;2024-01-06T17:16:12;6.80;99.90
12089;DHT22;6107;49.078;8.578;2024-01-06T17:18:38;6.80;99.90
12089;DHT22;6107;49.078;8.578;2024-01-06T17:21:04;6.70;99.90
12089;DHT22;6107;49.078;8.578;2024-01-06T17:23:29;6.60;99.90
12089;DHT22;6107;49.078;8.578;2024-01-06T17:25:55;6.60;99.90
12089;DHT22;6107;49.078;8.578;2024-01-06T17:28:21;6.70;99.90
12089;DHT22;6107;49.078;8.578;2024-01-06T17:30:46;6.70;99.90
12089;DHT22;6107;49.078;8.578;2024-01-06T17:33:12;6.60;99.90
12089;DHT22;6107;49.078;8.578;2024-01-06T17:35:38;6.80;99.90
12089;DHT22;6107;49.078;8.578;2024-01-06T17:38:03;6.80;99.90
12089;DHT22;6107;49.078;8.578;2024-01-06T17:40:29;6.70;99.90
12089;DHT22;6107;49.078;8.578;2024-01-06T17:42:55;6.70;99.90
12089;DHT22;6107;49.078;8.578;2024-01-06T17:45:20;6.50;99.90
12089;DHT22;6107;49.078;8.578;2024-01-06T17:47:46;6.50;99.90
12089;DHT22;6107;49.078;8.578;2024-01-06T17:50:12;6.70;99.90
12089;DHT22;6107;49.078;8.578;2024-01-06T17:52:38;6.60;99.90
12089;DHT22;6107;49.078;8.578;2024-01-06T17:55:04;6.70;99.90
12089;DHT22;6107;49.078;8.578;2024-01-06T17:57:32;6.70;99.90
12089;DHT22;6107;49.078;8.578;2024-01-06T18:00:03;6.80;99.90
12089;DHT22;6107;49.078;8.578;2024-01-06T18:02:29;6.60;99.90
12089;DHT22;6107;49.078;8.578;2024-01-06T18:04:55;6.50;99.90
12089;DHT22;6107;49.078;8.578;2024-01-06T18:07:21;6.50;99.90
12089;DHT22;6107;49.078;8.578;2024-01-06T18:09:47;6.50;99.90
12089;DHT22;6107;49.078;8.578;2024-01-06T18:12:13;6.60;99.90
12089;DHT22;6107;49.078;8.578;2024-01-06T18:14:38;6.60;99.90
12089;DHT22;6107;49.078;8.578;2024-01-06T18:17:04;6.60;99.90
12089;DHT22;6107;49.078;8.578;2024-01-06T18:19:31;6.60;99.90
12089;DHT22;6107;49.078;8.578;2024-01-06T18:21:57;6.50;99.90
12089;DHT22;6107;49.078;8.578;2024-01-06T18:24:23;6.40;99.90
12089;DHT22;6107;49.078;8.578;2024-01-06T18:26:48;6.30;99.90
12089;DHT22;6107;49.078;8.578;2024-01-06T18:29:14;6.20;99.90
12089;DHT22;6107;49.078;8.578;2024-01-06T18:31:46;6.40;99.90
12089;DHT22;6107;49.078;8.578;2024-01-06T18:34:12;6.30;99.90
12089;DHT22;6107;49.078;8.578;2024-01-06T18:36:38;6.30;99.90
12089;DHT22;6107;49.078;8.578;2024-01-06T18:39:03;6.30;99.90
12089;DHT22;6107;49.078;8.578;2024-01-06T18:41:29;6.30;99.90
12089;DHT22;6107;49.078;8.578;2024-01-06T18:43:54;6.30;99.90
12089;DHT22;6107;49.078;8.578;2024-01-06T18:46:20;6.40;99.90
12089;DHT22;6107;49.078;8.578;2024-01-06T18:48:46;6.50;99.90
12089;DHT22;6107;49.078;8.578;2024-01-06T18:51:12;6.60;99.90
12089;DHT22;6107;49.078;8.578;2024-01-06T18:53:39;6.60;99.90
12089;DHT22;6107;49.078;8.578;2024-01-06T18:56:05;6.60;99.90
12089;DHT22;6107;49.078;8.578;2024-01-06T18:58:31;6.60;99.90
12089;DHT22;6107;49.078;8.578;2024-01-06T19:00:56;6.70;99.90
12089;DHT22;6107;49.078;8.578;2024-01-06T19:03:22;6.70;99.90
12089;DHT22;6107;49.078;8.578;2024-01-06T19:05:48;6.70;99.90
12089;DHT22;6107;49.078;8.578;2024-01-06T19:08:13;6.70;99.90
12089;DHT22;6107;49.078;8.578;2024-01-06T19:10:39;6.70;99.90
12089;DHT22;6107;49.078;8.578;2024-01-06T19:13:05;6.50;99.90
12089;DHT22;6107;49.078;8.578;2024-01-06T19:15:36;6.40;99.90
12089;DHT22;6107;49.078;8.578;2024-01-06T19:18:07;6.30;99.90
12089;DHT22;6107;49.078;8.578;2024-01-06T19:20:33;6.30;99.90
12089;DHT22;6107;49.078;8.578;2024-01-06T19:22:59;6.20;99.90
12089;DHT22;6107;49.078;8.578;2024-01-06T19:25:25;6.30;99.90
12089;DHT22;6107;49.078;8.578;2024-01-06T19:27:51;6.30;99.90
12089;DHT22;6107;49.078;8.578;2024-01-06T19:30:17;6.30;99.90
12089;DHT22;6107;49.078;8.578;2024-01-06T19:32:42;6.30;99.90
12089;DHT22;6107;49.078;8.578;2024-01-06T19:35:08;6.30;99.90
12089;DHT22;6107;49.078;8.578;2024-01-06T19:37:34;6.30;99.90
12089;DHT22;6107;49.078;8.578;2024-01-06T19:40:00;6.50;99.90
12089;DHT22;6107;49.078;8.578;2024-01-06T19:42:26;6.40;99.90
12089;DHT22;6107;49.078;8.578;2024-01-06T19:44:51;6.30;99.90
12089;DHT22;6107;49.078;8.578;2024-01-06T19:47:19;6.40;99.90
12089;DHT22;6107;49.078;8.578;2024-01-06T19:49:44;6.30;99.90
12089;DHT22;6107;49.078;8.578;2024-01-06T19:52:10;6.30;99.90
12089;DHT22;6107;49.078;8.578;2024-01-06T19:54:36;6.30;99.90
12089;DHT22;6107;49.078;8.578;2024-01-06T19:57:03;6.40;99.90
12089;DHT22;6107;49.078;8.578;2024-01-06T19:59:29;6.40;99.90
12089;DHT22;6107;49.078;8.578;2024-01-06T20:01:55;6.30;99.90
12089;DHT22;6107;49.078;8.578;2024-01-06T20:04:20;6.40;99.90
12089;DHT22;6107;49.078;8.578;2024-01-06T20:06:46;6.50;99.90
12089;DHT22;6107;49.078;8.578;2024-01-06T20:09:11;6.50;99.90
12089;DHT22;6107;49.078;8.578;2024-01-06T20:11:37;6.40;99.90
12089;DHT22;6107;49.078;8.578;2024-01-06T20:14:03;6.30;99.90
12089;DHT22;6107;49.078;8.578;2024-01-06T20:16:29;6.30;99.90
12089;DHT22;6107;49.078;8.578;2024-01-06T20:18:56;6.20;99.90
12089;DHT22;6107;49.078;8.578;2024-01-06T20:21:22;6.20;99.90
12089;DHT22;6107;49.078;8.578;2024-01-06T20:23:47;6.20;99.90
12089;DHT22;6107;49.078;8.578;2024-01-06T20:26:13;6.10;99.90
12089;DHT22;6107;49.078;8.578;2024-01-06T20:28:40;6.10;99.90
12089;DHT22;6107;49.078;8.578;2024-01-06T20:38:29;5.70;99.90
12089;DHT22;6107;49.078;8.578;2024-01-06T20:40:55;5.80;99.90
12089;DHT22;6107;49.078;8.578;2024-01-06T20:43:22;5.60;99.90
12089;DHT22;6107;49.078;8.578;2024-01-06T20:45:47;5.60;99.90
12089;DHT22;6107;49.078;8.578;2024-01-06T20:48:14;5.60;99.90
12089;DHT22;6107;49.078;8.578;2024-01-06T20:50:40;5.60;99.90
12089;DHT22;6107;49.078;8.578;2024-01-06T20:53:06;5.70;99.90
12089;DHT22;6107;49.078;8.578;2024-01-06T20:55:31;5.80;99.90
12089;DHT22;6107;49.078;8.578;2024-01-06T20:57:57;5.80;99.90